Time;durP1;ratioP1;P1;durP2;ratioP2;P2;SDS_P1;SDS_P2;PMS_P1;PMS_P2;Temp;Humidity;BMP_temperature;BMP_pressure;BME280_temperature;BME280_humidity;BME280_pressure;Samples;Min_cycle;Max_cycle;Signal;HPM_P1;HPM_P2
2021/10/31 00:00:14;;;;;;;37.50;26.42;;;;;;;;;;5075477;28;20028;-81
2021/10/31 00:02:40;;;;;;;38.05;27.70;;;;;;;;;;5075377;28;20090;-81
2021/10/31 00:05:10;;;;;;;34.40;25.88;;;;;;;;;;5075450;28;20035;-79
2021/10/31 00:07:36;;;;;;;37.90;28.42;;;;;;;;;;5057195;28;20024;-83
2021/10/31 00:10:03;;;;;;;33.63;25.42;;;;;;;;;;5075135;28;20060;-81
2021/10/31 00:12:29;;;;;;;30.38;23.08;;;;;;;;;;5057177;28;20025;-83
2021/10/31 00:14:55;;;;;;;29.48;21.52;;;;;;;;;;5074899;28;20034;-83
2021/10/31 00:17:22;;;;;;;31.83;23.85;;;;;;;;;;5074860;28;20127;-78
2021/10/31 00:19:48;;;;;;;30.40;21.83;;;;;;;;;;5074898;28;20025;-81
2021/10/31 00:22:14;;;;;;;31.27;21.40;;;;;;;;;;5074966;28;20051;-79
2021/10/31 00:24:40;;;;;;;30.50;23.30;;;;;;;;;;5056954;28;20020;-83
2021/10/31 00:27:06;;;;;;;30.27;22.15;;;;;;;;;;5075054;28;20017;-81
2021/10/31 00:29:32;;;;;;;31.33;22.15;;;;;;;;;;5074654;28;20016;-81
2021/10/31 00:32:01;;;;;;;30.60;23.25;;;;;;;;;;5074639;28;20063;-80
2021/10/31 00:34:27;;;;;;;34.25;23.33;;;;;;;;;;5074501;28;20464;-82
2021/10/31 00:36:53;;;;;;;34.00;23.63;;;;;;;;;;5074618;28;20036;-80
2021/10/31 00:39:19;;;;;;;31.92;22.38;;;;;;;;;;5074584;28;20020;-84
2021/10/31 00:41:46;;;;;;;32.50;21.30;;;;;;;;;;5074420;28;20108;-83
2021/10/31 00:44:12;;;;;;;33.60;22.73;;;;;;;;;;5074711;28;20074;-83
2021/10/31 00:46:38;;;;;;;36.22;24.58;;;;;;;;;;5074438;28;20067;-81
2021/10/31 00:49:04;;;;;;;35.50;23.70;;;;;;;;;;5074381;28;20060;-84
2021/10/31 00:51:31;;;;;;;28.35;20.67;;;;;;;;;;5056381;28;20024;-82
2021/10/31 00:53:58;;;;;;;24.35;18.58;;;;;;;;;;5056440;28;20024;-83
2021/10/31 00:56:24;;;;;;;24.50;18.60;;;;;;;;;;5074204;28;20017;-82
2021/10/31 00:58:51;;;;;;;27.13;17.60;;;;;;;;;;5073577;28;20082;-83
2021/10/31 01:01:17;;;;;;;22.58;16.98;;;;;;;;;;5074112;28;20024;-83
2021/10/31 01:03:45;;;;;;;24.73;18.02;;;;;;;;;;5074110;28;20085;-81
2021/10/31 01:06:26;;;;;;;23.88;18.75;;;;;;;;;;5074049;28;20025;-83
2021/10/31 01:09:13;;;;;;;24.48;16.85;;;;;;;;;;5056174;28;20070;-82
2021/10/31 01:11:58;;;;;;;33.13;21.60;;;;;;;;;;5073679;28;20090;-79
2021/10/31 01:14:24;;;;;;;;;;;;;;;;;;5074552;28;20116;-82
2021/10/31 01:17:06;;;;;;;42.85;25.92;;;;;;;;;;5073971;28;19943;-82
2021/10/31 01:19:50;;;;;;;36.92;25.10;;;;;;;;;;5073798;28;20073;-80
2021/10/31 01:22:16;;;;;;;;;;;;;;;;;;5074321;28;20028;-84
2021/10/31 01:25:01;;;;;;;26.83;19.30;;;;;;;;;;5074067;28;19905;-80
2021/10/31 01:27:31;;;;;;;25.85;18.63;;;;;;;;;;5073744;28;20017;-80
2021/10/31 01:30:00;;;;;;;25.63;18.60;;;;;;;;;;5055774;28;20029;-83
2021/10/31 01:32:45;;;;;;;24.83;18.05;;;;;;;;;;5073781;28;20029;-81
2021/10/31 01:35:30;;;;;;;23.45;18.20;;;;;;;;;;5073688;28;20024;-85
2021/10/31 01:38:02;;;;;;;27.73;19.25;;;;;;;;;;5073828;28;20017;-82
2021/10/31 01:40:36;;;;;;;23.63;19.05;;;;;;;;;;5073788;28;20031;-82
2021/10/31 01:43:08;;;;;;;28.73;20.27;;;;;;;;;;5073658;28;20033;-85
2021/10/31 01:45:53;;;;;;;34.13;23.17;;;;;;;;;;5073728;28;20285;-84
2021/10/31 01:48:25;;;;;;;41.50;25.08;;;;;;;;;;5073726;28;20024;-83
2021/10/31 01:50:56;;;;;;;32.22;22.98;;;;;;;;;;5073475;28;20039;-83
2021/10/31 01:53:34;;;;;;;30.38;21.30;;;;;;;;;;5073799;28;20024;-85
2021/10/31 01:56:07;;;;;;;29.77;19.63;;;;;;;;;;5073478;28;20028;-80
2021/10/31 01:58:44;;;;;;;23.93;17.37;;;;;;;;;;5073204;28;20029;-81
2021/10/31 02:01:15;;;;;;;22.73;17.55;;;;;;;;;;5073509;28;20269;-82
2021/10/31 02:03:42;;;;;;;23.30;18.15;;;;;;;;;;5073491;28;20376;-80
2021/10/31 02:06:09;;;;;;;23.80;17.42;;;;;;;;;;5073457;28;20024;-79
2021/10/31 02:08:38;;;;;;;23.02;17.48;;;;;;;;;;5073553;28;20020;-80
2021/10/31 02:11:08;;;;;;;25.30;18.90;;;;;;;;;;5076913;28;20141;-82
2021/10/31 02:13:39;;;;;;;23.00;17.60;;;;;;;;;;5077601;28;20095;-81
2021/10/31 02:16:06;;;;;;;25.05;18.25;;;;;;;;;;5059801;28;20024;-84
2021/10/31 02:18:33;;;;;;;22.52;17.08;;;;;;;;;;5077395;28;20472;-82
2021/10/31 02:21:00;;;;;;;24.58;17.77;;;;;;;;;;5059371;28;20025;-81
2021/10/31 02:23:27;;;;;;;24.63;18.40;;;;;;;;;;5059329;28;20376;-84
2021/10/31 02:25:53;;;;;;;23.48;18.38;;;;;;;;;;5077213;28;20020;-84
2021/10/31 02:28:19;;;;;;;22.42;16.27;;;;;;;;;;5077246;28;20087;-82
2021/10/31 02:30:45;;;;;;;24.38;17.67;;;;;;;;;;5077027;28;20021;-84
2021/10/31 02:33:11;;;;;;;25.38;18.15;;;;;;;;;;5077101;28;20082;-80
2021/10/31 02:35:40;;;;;;;42.47;26.27;;;;;;;;;;5076836;28;20056;-84
2021/10/31 02:38:07;;;;;;;43.38;28.45;;;;;;;;;;5076822;28;20024;-83
2021/10/31 02:40:36;;;;;;;30.05;22.08;;;;;;;;;;5058961;28;20111;-82
2021/10/31 02:43:05;;;;;;;37.50;27.90;;;;;;;;;;5076824;28;20031;-82
2021/10/31 02:45:34;;;;;;;42.53;27.23;;;;;;;;;;5076563;28;20052;-80
2021/10/31 02:48:04;;;;;;;32.92;23.02;;;;;;;;;;5058558;28;20028;-83
2021/10/31 02:50:33;;;;;;;26.00;18.95;;;;;;;;;;5076459;28;20424;-81
2021/10/31 02:53:28;;;;;;;30.75;21.85;;;;;;;;;;5076575;28;20025;-81
2021/10/31 02:55:54;;;;;;;;;;;;;;;;;;5068108;28;20493;-83
2021/10/31 02:58:26;;;;;;;29.83;20.58;;;;;;;;;;5076448;28;19944;-83
2021/10/31 03:01:11;;;;;;;29.30;20.70;;;;;;;;;;5058508;28;20025;-81
2021/10/31 03:03:37;;;;;;;;;;;;;;;;;;5077005;28;20040;-81
2021/10/31 03:06:04;;;;;;;26.48;19.27;;;;;;;;;;5076580;28;20271;-85
2021/10/31 03:08:30;;;;;;;31.60;21.15;;;;;;;;;;5076615;28;20530;-80
2021/10/31 03:11:01;;;;;;;29.27;20.50;;;;;;;;;;5076364;28;20032;-82
2021/10/31 03:13:28;;;;;;;31.27;21.00;;;;;;;;;;5076335;28;20456;-82
2021/10/31 03:15:55;;;;;;;28.00;21.38;;;;;;;;;;5076297;28;20025;-80
2021/10/31 03:18:21;;;;;;;31.08;21.92;;;;;;;;;;5076224;28;20048;-82
2021/10/31 03:20:48;;;;;;;27.42;19.90;;;;;;;;;;5075840;28;20099;-81
2021/10/31 03:23:14;;;;;;;25.88;18.65;;;;;;;;;;5075652;28;20029;-81
2021/10/31 03:25:41;;;;;;;32.15;22.02;;;;;;;;;;5075962;28;20052;-84
2021/10/31 03:28:07;;;;;;;26.67;19.17;;;;;;;;;;5076021;28;20023;-84
2021/10/31 03:30:51;;;;;;;21.45;16.75;;;;;;;;;;5076027;28;20017;-80
2021/10/31 03:33:24;;;;;;;20.98;15.95;;;;;;;;;;5075969;28;20020;-83
2021/10/31 03:35:57;;;;;;;23.10;17.17;;;;;;;;;;5075827;28;20532;-84
2021/10/31 03:38:24;;;;;;;21.73;17.60;;;;;;;;;;5075836;28;20025;-81
2021/10/31 03:40:52;;;;;;;22.52;16.83;;;;;;;;;;5057485;28;20387;-80
2021/10/31 03:43:20;;;;;;;24.27;16.63;;;;;;;;;;5057695;28;20025;-81
2021/10/31 03:45:47;;;;;;;23.48;18.10;;;;;;;;;;5057663;28;20063;-83
2021/10/31 03:48:14;;;;;;;24.15;19.45;;;;;;;;;;5075462;28;20044;-81
2021/10/31 03:50:40;;;;;;;25.20;17.85;;;;;;;;;;5075608;28;20533;-80
2021/10/31 03:53:08;;;;;;;23.13;17.48;;;;;;;;;;5057596;28;20025;-82
2021/10/31 03:55:34;;;;;;;25.83;18.70;;;;;;;;;;5075395;28;20497;-82
2021/10/31 03:58:00;;;;;;;22.40;16.20;;;;;;;;;;5075645;28;20387;-80
2021/10/31 04:00:26;;;;;;;25.23;17.38;;;;;;;;;;5075473;28;20101;-82
2021/10/31 04:03:00;;;;;;;27.88;20.17;;;;;;;;;;5057087;28;20083;-83
2021/10/31 04:05:26;;;;;;;28.30;20.13;;;;;;;;;;5075162;28;20029;-81
2021/10/31 04:08:00;;;;;;;33.35;20.33;;;;;;;;;;5057240;28;20044;-80
2021/10/31 04:10:28;;;;;;;30.77;19.95;;;;;;;;;;5075066;28;20024;-83
2021/10/31 04:12:57;;;;;;;38.65;23.92;;;;;;;;;;5057213;28;20028;-81
2021/10/31 04:15:27;;;;;;;31.25;21.42;;;;;;;;;;5075030;28;20039;-82
2021/10/31 04:17:53;;;;;;;33.85;22.42;;;;;;;;;;5075085;28;20036;-81
2021/10/31 04:20:22;;;;;;;28.98;20.27;;;;;;;;;;5074897;28;20025;-82
2021/10/31 04:22:55;;;;;;;28.85;19.92;;;;;;;;;;5057004;28;20025;-82
2021/10/31 04:25:23;;;;;;;27.25;19.45;;;;;;;;;;5074774;28;20475;-81
2021/10/31 04:27:52;;;;;;;23.42;17.08;;;;;;;;;;5074806;28;20028;-80
2021/10/31 04:30:18;;;;;;;28.38;19.75;;;;;;;;;;5074678;28;20021;-82
2021/10/31 04:32:44;;;;;;;28.67;20.23;;;;;;;;;;5074099;28;20036;-83
2021/10/31 04:35:10;;;;;;;35.10;25.27;;;;;;;;;;5056492;28;20116;-81
2021/10/31 04:37:39;;;;;;;33.72;23.90;;;;;;;;;;5074603;28;20027;-83
2021/10/31 04:40:17;;;;;;;35.55;26.05;;;;;;;;;;5074517;28;20045;-82
2021/10/31 04:42:45;;;;;;;38.95;26.92;;;;;;;;;;5074593;28;20048;-83
2021/10/31 04:45:12;;;;;;;37.20;27.25;;;;;;;;;;5074284;28;20133;-82
2021/10/31 04:47:38;;;;;;;47.08;33.58;;;;;;;;;;5074482;28;20028;-83
2021/10/31 04:50:07;;;;;;;40.95;29.38;;;;;;;;;;5074413;28;20384;-80
2021/10/31 04:52:35;;;;;;;32.53;21.67;;;;;;;;;;5074437;28;20021;-82
2021/10/31 04:55:01;;;;;;;30.15;21.25;;;;;;;;;;5074295;28;20028;-82
2021/10/31 04:57:27;;;;;;;30.23;22.73;;;;;;;;;;5056305;28;20074;-82
2021/10/31 04:59:53;;;;;;;30.40;21.20;;;;;;;;;;5074174;28;20024;-81
2021/10/31 05:02:19;;;;;;;29.23;21.45;;;;;;;;;;5073921;28;20089;-84
2021/10/31 05:04:51;;;;;;;33.22;23.13;;;;;;;;;;5056262;28;20187;-81
2021/10/31 05:07:17;;;;;;;37.15;24.67;;;;;;;;;;5074078;28;20016;-81
2021/10/31 05:09:43;;;;;;;32.15;24.52;;;;;;;;;;5074165;28;20357;-82
2021/10/31 05:12:12;;;;;;;39.58;28.52;;;;;;;;;;5056052;28;20468;-79
2021/10/31 05:17:24;;;;;;;39.97;27.08;;;;;;;;;;5073855;28;20060;-80
2021/10/31 05:19:50;;;;;;;40.15;29.25;;;;;;;;;;5073856;28;20103;-81
2021/10/31 05:22:16;;;;;;;42.40;28.40;;;;;;;;;;5073751;28;20035;-83
2021/10/31 05:24:42;;;;;;;47.70;29.08;;;;;;;;;;5073864;28;20376;-81
2021/10/31 05:27:08;;;;;;;71.45;40.88;;;;;;;;;;5073686;28;20024;-84
2021/10/31 05:29:35;;;;;;;68.18;38.83;;;;;;;;;;5073890;28;20028;-80
2021/10/31 05:32:01;;;;;;;63.28;38.33;;;;;;;;;;5073783;28;20032;-80
2021/10/31 05:34:28;;;;;;;50.58;31.00;;;;;;;;;;5055787;28;20379;-83
2021/10/31 05:36:56;;;;;;;59.63;45.72;;;;;;;;;;5073986;28;20021;-84
2021/10/31 05:39:22;;;;;;;64.40;47.85;;;;;;;;;;5073543;28;20108;-81
2021/10/31 05:41:48;;;;;;;58.22;46.85;;;;;;;;;;5073700;28;20024;-82
2021/10/31 05:44:14;;;;;;;53.05;41.15;;;;;;;;;;5073666;28;20031;-79
2021/10/31 05:46:40;;;;;;;32.67;26.20;;;;;;;;;;5055411;28;20079;-81
2021/10/31 05:49:16;;;;;;;31.80;23.83;;;;;;;;;;5073620;28;20024;-81
2021/10/31 05:51:42;;;;;;;30.58;22.40;;;;;;;;;;5055649;28;20020;-85
2021/10/31 05:54:09;;;;;;;29.55;22.73;;;;;;;;;;5073465;28;20460;-81
2021/10/31 05:56:40;;;;;;;32.63;25.52;;;;;;;;;;5073541;28;20032;-82
2021/10/31 06:02:18;;;;;;;30.83;23.33;;;;;;;;;;5055639;28;20526;-83
2021/10/31 06:04:46;;;;;;;31.77;24.33;;;;;;;;;;5055600;28;20024;-80
2021/10/31 06:07:12;;;;;;;36.35;26.75;;;;;;;;;;5073350;28;20024;-82
2021/10/31 06:09:40;;;;;;;32.97;22.77;;;;;;;;;;5073277;28;20099;-81
2021/10/31 06:12:08;;;;;;;53.17;38.08;;;;;;;;;;5073009;28;20025;-80
2021/10/31 06:14:35;;;;;;;84.60;56.15;;;;;;;;;;5055366;28;20048;-81
2021/10/31 06:17:03;;;;;;;115.68;75.55;;;;;;;;;;5073312;28;20029;-82
2021/10/31 06:19:30;;;;;;;97.70;69.57;;;;;;;;;;5073162;28;20498;-82
2021/10/31 06:21:56;;;;;;;113.47;74.93;;;;;;;;;;5073160;28;20071;-82
2021/10/31 06:24:22;;;;;;;125.80;86.53;;;;;;;;;;5073085;28;20055;-81
2021/10/31 06:26:48;;;;;;;178.27;120.72;;;;;;;;;;5073261;28;20013;-83
2021/10/31 06:29:19;;;;;;;58.97;40.47;;;;;;;;;;5072931;28;20025;-81
2021/10/31 06:31:50;;;;;;;59.58;41.35;;;;;;;;;;5073013;28;20028;-82
2021/10/31 06:34:18;;;;;;;59.63;46.20;;;;;;;;;;5073029;28;20028;-82
2021/10/31 06:36:45;;;;;;;61.92;47.03;;;;;;;;;;5073026;28;20029;-81
2021/10/31 06:39:15;;;;;;;63.47;44.78;;;;;;;;;;5072938;28;20021;-81
2021/10/31 06:41:42;;;;;;;57.88;41.00;;;;;;;;;;5072997;28;20107;-84
2021/10/31 06:44:08;;;;;;;56.42;42.10;;;;;;;;;;5072778;28;20016;-83
2021/10/31 06:46:41;;;;;;;59.38;41.53;;;;;;;;;;5072527;28;20059;-82
2021/10/31 06:49:09;;;;;;;58.50;42.22;;;;;;;;;;5054987;28;20167;-84
2021/10/31 06:51:38;;;;;;;49.53;39.13;;;;;;;;;;5054894;28;20024;-80
2021/10/31 06:54:04;;;;;;;52.45;39.72;;;;;;;;;;5072870;28;20021;-81
2021/10/31 06:56:30;;;;;;;48.28;39.38;;;;;;;;;;5073670;28;20044;-85
2021/10/31 06:59:00;;;;;;;58.55;43.67;;;;;;;;;;5076506;28;20058;-86
2021/10/31 07:01:29;;;;;;;72.82;52.13;;;;;;;;;;5076399;28;20460;-82
2021/10/31 07:03:55;;;;;;;92.10;63.15;;;;;;;;;;5058054;28;20033;-83
2021/10/31 07:06:21;;;;;;;85.80;61.22;;;;;;;;;;5076336;28;20027;-84
2021/10/31 07:08:47;;;;;;;76.30;53.53;;;;;;;;;;5058598;28;20020;-82
2021/10/31 07:11:15;;;;;;;61.28;44.20;;;;;;;;;;5076351;28;20031;-81
2021/10/31 07:13:44;;;;;;;54.30;40.00;;;;;;;;;;5076240;28;20033;-82
2021/10/31 07:16:10;;;;;;;48.38;36.55;;;;;;;;;;5076283;28;20025;-82
2021/10/31 07:18:36;;;;;;;43.67;33.75;;;;;;;;;;5076179;28;20479;-85
2021/10/31 07:21:03;;;;;;;46.45;32.35;;;;;;;;;;5076031;28;20043;-82
2021/10/31 07:23:36;;;;;;;32.45;25.83;;;;;;;;;;5076158;28;20013;-82
2021/10/31 07:26:15;;;;;;;;;;;;;;;;;;;;;
2021/10/31 07:29:15;;;;;;;;;;;;;;;;;;;;;
2021/10/31 07:31:31;;;;;;;29.42;22.95;;;;;;;;;;5067533;28;20032;-83
2021/10/31 07:34:10;;;;;;;;;;;;;;;;;;;;;
2021/10/31 07:37:15;;;;;;;;;;;;;;;;;;;;;
2021/10/31 07:39:42;;;;;;;;;;;;;;;;;;5076612;28;20032;-85
2021/10/31 07:42:09;;;;;;;26.80;20.63;;;;;;;;;;5075720;28;19908;-83
2021/10/31 07:44:42;;;;;;;28.27;21.05;;;;;;;;;;5075402;28;20095;-83
2021/10/31 07:47:10;;;;;;;23.02;18.40;;;;;;;;;;5057785;28;20028;-80
2021/10/31 07:49:39;;;;;;;23.70;18.08;;;;;;;;;;5075668;28;20100;-82
2021/10/31 07:52:14;;;;;;;22.55;17.27;;;;;;;;;;5075423;28;20078;-84
2021/10/31 07:54:59;;;;;;;22.85;17.77;;;;;;;;;;5057538;28;20494;-80
2021/10/31 07:57:28;;;;;;;21.88;16.15;;;;;;;;;;5057568;28;20120;-85
2021/10/31 07:59:56;;;;;;;23.95;17.63;;;;;;;;;;5057549;28;20107;-83
2021/10/31 08:02:22;;;;;;;22.85;16.02;;;;;;;;;;5075124;28;20051;-81
2021/10/31 08:04:48;;;;;;;24.45;17.70;;;;;;;;;;5057520;28;20021;-84
2021/10/31 08:07:17;;;;;;;21.65;16.88;;;;;;;;;;5075065;28;20025;-84
2021/10/31 08:09:43;;;;;;;23.85;17.10;;;;;;;;;;5075177;28;20048;-82
2021/10/31 08:12:09;;;;;;;24.58;17.88;;;;;;;;;;5057324;28;20111;-84
2021/10/31 08:24:26;;;;;;;;;;;;;;;;;;;;;
2021/10/31 08:27:30;;;;;;;39.65;27.02;;;;;;;;;;5074961;28;20026;-83
2021/10/31 08:30:30;;;;;;;;;;;;;;;;;;;;;
2021/10/31 08:32:58;;;;;;;26.75;20.05;;;;;;;;;;5071685;28;20047;-81
2021/10/31 08:35:24;;;;;;;22.55;18.15;;;;;;;;;;5074790;28;20067;-83
2021/10/31 08:37:51;;;;;;;22.15;17.05;;;;;;;;;;5074653;28;20028;-83
2021/10/31 08:40:17;;;;;;;21.55;16.30;;;;;;;;;;5074512;28;20031;-81
2021/10/31 08:42:43;;;;;;;22.15;17.27;;;;;;;;;;5074526;28;20028;-80
2021/10/31 08:45:10;;;;;;;20.67;17.38;;;;;;;;;;5074342;28;20059;-83
2021/10/31 08:47:37;;;;;;;23.98;17.85;;;;;;;;;;5074575;28;20020;-83
2021/10/31 08:50:03;;;;;;;21.70;16.70;;;;;;;;;;5074391;28;20056;-82
2021/10/31 08:52:32;;;;;;;24.90;17.42;;;;;;;;;;5074374;28;20384;-82
2021/10/31 08:55:00;;;;;;;24.20;18.38;;;;;;;;;;5074222;28;20492;-81
2021/10/31 08:57:29;;;;;;;25.05;17.33;;;;;;;;;;5074377;28;20111;-81
2021/10/31 09:00:02;;;;;;;23.90;17.65;;;;;;;;;;5074178;28;20103;-82
2021/10/31 09:02:29;;;;;;;27.58;18.50;;;;;;;;;;5056225;28;20025;-80
2021/10/31 09:04:55;;;;;;;22.60;16.75;;;;;;;;;;5074119;28;20164;-83
2021/10/31 09:07:24;;;;;;;21.27;16.55;;;;;;;;;;5056117;28;20475;-80
2021/10/31 09:09:50;;;;;;;22.15;17.25;;;;;;;;;;5074126;28;20052;-84
2021/10/31 09:12:17;;;;;;;20.27;16.83;;;;;;;;;;5074128;28;20024;-83
2021/10/31 09:14:43;;;;;;;21.52;15.82;;;;;;;;;;5073932;28;20020;-84
2021/10/31 09:17:11;;;;;;;19.85;15.77;;;;;;;;;;5073979;28;20031;-82
2021/10/31 09:19:40;;;;;;;20.30;15.93;;;;;;;;;;5073342;28;20422;-83
2021/10/31 09:22:06;;;;;;;20.45;15.57;;;;;;;;;;5073801;28;20108;-82
2021/10/31 09:24:32;;;;;;;19.77;15.25;;;;;;;;;;5073872;28;20031;-84
2021/10/31 09:26:58;;;;;;;24.25;16.65;;;;;;;;;;5073810;28;20468;-84
2021/10/31 09:29:28;;;;;;;22.90;17.08;;;;;;;;;;5073791;28;20024;-83
2021/10/31 09:31:55;;;;;;;20.20;15.60;;;;;;;;;;5073731;28;20028;-84
2021/10/31 09:34:21;;;;;;;16.45;14.75;;;;;;;;;;5073748;28;20025;-82
2021/10/31 09:36:47;;;;;;;16.42;14.40;;;;;;;;;;5073575;28;20032;-84
2021/10/31 09:39:14;;;;;;;21.38;14.65;;;;;;;;;;5073722;28;20036;-82
2021/10/31 09:41:45;;;;;;;20.63;15.82;;;;;;;;;;5073737;28;20020;-82
2021/10/31 09:46:37;;;;;;;16.17;14.13;;;;;;;;;;5073419;28;20411;-84
2021/10/31 09:49:04;;;;;;;17.58;13.35;;;;;;;;;;5073297;28;20028;-80
2021/10/31 09:51:32;;;;;;;19.45;14.98;;;;;;;;;;5073913;28;20418;-82
2021/10/31 09:54:01;;;;;;;18.00;14.13;;;;;;;;;;5082028;28;20016;-80
2021/10/31 09:56:28;;;;;;;15.85;13.40;;;;;;;;;;5082484;28;20060;-80
2021/10/31 09:58:59;;;;;;;15.25;13.63;;;;;;;;;;5082210;28;20025;-79
2021/10/31 10:04:39;;;;;;;16.27;14.15;;;;;;;;;;5084323;28;20020;-78
2021/10/31 10:07:06;;;;;;;15.68;13.30;;;;;;;;;;5082763;28;20016;-78
2021/10/31 10:09:33;;;;;;;17.13;12.93;;;;;;;;;;5062671;28;20112;-80
2021/10/31 10:12:00;;;;;;;14.07;11.73;;;;;;;;;;5080805;28;20028;-79
2021/10/31 10:14:28;;;;;;;16.75;13.07;;;;;;;;;;5082228;28;20025;-80
2021/10/31 10:16:57;;;;;;;18.88;12.75;;;;;;;;;;5082070;28;20025;-78
2021/10/31 10:19:29;;;;;;;14.85;12.23;;;;;;;;;;5081523;28;20028;-80
2021/10/31 10:21:58;;;;;;;14.02;12.07;;;;;;;;;;5064550;28;20025;-78
2021/10/31 10:24:30;;;;;;;19.05;13.55;;;;;;;;;;5081526;28;20020;-78
2021/10/31 10:26:59;;;;;;;17.98;14.68;;;;;;;;;;5063341;28;20029;-77
2021/10/31 10:29:27;;;;;;;17.55;14.57;;;;;;;;;;5081210;28;20020;-77
2021/10/31 10:31:56;;;;;;;14.68;11.82;;;;;;;;;;5080475;28;20036;-80
2021/10/31 10:34:37;;;;;;;13.70;12.07;;;;;;;;;;5066123;28;20025;-82
2021/10/31 10:37:08;;;;;;;12.35;10.70;;;;;;;;;;5082056;28;20032;-82
2021/10/31 10:39:35;;;;;;;15.40;11.75;;;;;;;;;;5081574;28;20034;-85
2021/10/31 10:42:01;;;;;;;13.35;10.80;;;;;;;;;;5084048;28;20056;-81
2021/10/31 10:44:27;;;;;;;12.32;10.73;;;;;;;;;;5084089;28;20048;-80
2021/10/31 10:47:18;;;;;;;13.60;11.50;;;;;;;;;;5077383;28;20032;-80
2021/10/31 10:49:45;;;;;;;13.75;11.82;;;;;;;;;;5076634;28;20012;-83
2021/10/31 10:52:23;;;;;;;14.15;12.45;;;;;;;;;;5076638;28;20073;-83
2021/10/31 10:54:49;;;;;;;15.18;12.52;;;;;;;;;;5076744;28;20025;-83
2021/10/31 10:57:16;;;;;;;15.80;11.95;;;;;;;;;;5076449;28;20028;-82
2021/10/31 10:59:49;;;;;;;13.63;11.43;;;;;;;;;;5058520;28;20025;-80
2021/10/31 11:02:18;;;;;;;23.23;17.20;;;;;;;;;;5058525;28;20437;-79
2021/10/31 11:04:45;;;;;;;13.75;11.48;;;;;;;;;;5076437;28;20110;-81
2021/10/31 11:07:12;;;;;;;20.85;10.93;;;;;;;;;;5058333;28;20028;-82
2021/10/31 11:09:39;;;;;;;16.40;10.10;;;;;;;;;;5076382;28;20016;-80
2021/10/31 11:12:24;;;;;;;13.93;11.50;;;;;;;;;;5076262;28;20028;-83
2021/10/31 11:14:51;;;;;;;11.98;9.65;;;;;;;;;;5076319;28;20029;-84
2021/10/31 11:17:21;;;;;;;15.05;9.90;;;;;;;;;;5058556;28;20024;-81
2021/10/31 11:19:49;;;;;;;13.63;10.40;;;;;;;;;;5058169;28;20031;-83
2021/10/31 11:22:15;;;;;;;11.98;10.30;;;;;;;;;;5076039;28;20020;-83
2021/10/31 11:24:43;;;;;;;10.45;8.52;;;;;;;;;;5076038;28;20031;-83
2021/10/31 11:27:11;;;;;;;11.45;9.48;;;;;;;;;;5076316;28;20043;-80
2021/10/31 11:29:38;;;;;;;16.80;10.30;;;;;;;;;;5075961;28;20056;-81
2021/10/31 11:32:04;;;;;;;11.15;9.95;;;;;;;;;;5075838;28;20032;-81
2021/10/31 11:34:30;;;;;;;11.73;10.45;;;;;;;;;;5075644;28;20060;-83
2021/10/31 11:36:57;;;;;;;13.88;9.95;;;;;;;;;;5075740;28;20036;-81
2021/10/31 11:39:23;;;;;;;11.95;10.13;;;;;;;;;;5075800;28;20476;-80
2021/10/31 11:41:50;;;;;;;11.82;10.63;;;;;;;;;;5057432;28;20037;-81
2021/10/31 11:44:16;;;;;;;11.25;9.52;;;;;;;;;;5075377;28;20468;-80
2021/10/31 11:46:43;;;;;;;10.90;9.75;;;;;;;;;;5075488;28;20056;-83
2021/10/31 11:49:09;;;;;;;13.30;9.95;;;;;;;;;;5075617;28;20031;-81
2021/10/31 11:51:47;;;;;;;13.38;9.75;;;;;;;;;;5057532;28;20101;-82
2021/10/31 11:54:14;;;;;;;12.35;10.40;;;;;;;;;;5075396;28;20032;-83
2021/10/31 11:56:43;;;;;;;11.15;9.98;;;;;;;;;;5075585;28;20098;-83
2021/10/31 11:59:19;;;;;;;12.23;10.68;;;;;;;;;;5075517;28;20017;-84
2021/10/31 12:02:05;;;;;;;11.65;10.45;;;;;;;;;;5075343;28;20502;-83
2021/10/31 12:04:35;;;;;;;11.75;9.40;;;;;;;;;;5075296;28;20031;-84
2021/10/31 12:07:08;;;;;;;11.85;8.82;;;;;;;;;;5074967;28;20031;-83
2021/10/31 12:09:35;;;;;;;12.07;10.43;;;;;;;;;;5075092;28;20074;-82
2021/10/31 12:12:21;;;;;;;11.93;9.70;;;;;;;;;;5075199;28;20027;-82
2021/10/31 12:14:50;;;;;;;15.32;10.30;;;;;;;;;;5075009;28;20032;-81
2021/10/31 12:17:16;;;;;;;11.73;10.48;;;;;;;;;;5074934;28;20016;-81
2021/10/31 12:19:47;;;;;;;14.55;10.57;;;;;;;;;;5074949;28;20025;-81
2021/10/31 12:22:15;;;;;;;14.90;10.32;;;;;;;;;;5074845;28;20029;-84
2021/10/31 12:25:00;;;;;;;12.95;10.80;;;;;;;;;;5074742;28;20029;-82
2021/10/31 12:27:27;;;;;;;13.88;11.05;;;;;;;;;;5074872;28;20017;-83
2021/10/31 12:29:55;;;;;;;12.43;11.00;;;;;;;;;;5074755;28;20016;-84
2021/10/31 12:32:22;;;;;;;13.57;10.23;;;;;;;;;;5074527;28;20492;-82
2021/10/31 12:34:49;;;;;;;13.38;10.80;;;;;;;;;;5074521;28;20028;-84
2021/10/31 12:37:19;;;;;;;13.20;9.35;;;;;;;;;;5074628;28;20550;-80
2021/10/31 12:39:47;;;;;;;11.23;10.02;;;;;;;;;;5074471;28;20442;-81
2021/10/31 12:42:13;;;;;;;13.45;9.90;;;;;;;;;;5074592;28;20112;-82
2021/10/31 12:45:02;;;;;;;11.48;10.27;;;;;;;;;;5056186;28;20028;-84
2021/10/31 12:50:32;;;;;;;17.77;12.98;;;;;;;;;;5074647;28;20070;-82
2021/10/31 12:53:10;;;;;;;27.50;20.02;;;;;;;;;;5074523;28;20553;-81
2021/10/31 12:55:38;;;;;;;26.27;22.60;;;;;;;;;;5073421;28;20028;-83
2021/10/31 12:58:05;;;;;;;20.58;15.10;;;;;;;;;;5039734;28;20386;-82
2021/10/31 13:00:33;;;;;;;18.58;12.60;;;;;;;;;;5056168;28;20036;-81
2021/10/31 13:03:04;;;;;;;16.20;11.65;;;;;;;;;;5074023;28;20036;-82
2021/10/31 13:05:38;;;;;;;11.95;10.05;;;;;;;;;;5074061;28;20016;-82
2021/10/31 13:08:04;;;;;;;13.90;10.82;;;;;;;;;;5074052;28;20463;-80
2021/10/31 13:10:32;;;;;;;12.77;10.07;;;;;;;;;;5074032;28;20124;-81
2021/10/31 13:13:06;;;;;;;13.85;10.85;;;;;;;;;;5073933;28;20099;-80
2021/10/31 13:15:35;;;;;;;13.52;10.23;;;;;;;;;;5073942;28;20475;-80
2021/10/31 13:18:02;;;;;;;12.68;11.35;;;;;;;;;;5074003;28;20467;-83
2021/10/31 13:20:48;;;;;;;13.27;11.23;;;;;;;;;;5055854;28;20485;-81
2021/10/31 13:23:20;;;;;;;12.18;10.98;;;;;;;;;;5073710;28;20471;-80
2021/10/31 13:25:52;;;;;;;12.80;11.40;;;;;;;;;;5055821;28;20471;-81
2021/10/31 13:28:24;;;;;;;11.07;8.95;;;;;;;;;;5073656;28;20025;-82
2021/10/31 13:31:04;;;;;;;12.15;10.38;;;;;;;;;;5073677;28;20021;-82
2021/10/31 13:33:44;;;;;;;11.07;9.32;;;;;;;;;;5073630;28;20028;-82
2021/10/31 13:36:18;;;;;;;12.80;9.63;;;;;;;;;;5055774;28;20036;-80
2021/10/31 13:38:50;;;;;;;14.85;10.00;;;;;;;;;;5055617;28;20120;-81
2021/10/31 13:41:17;;;;;;;15.60;10.73;;;;;;;;;;5055537;28;20368;-81
2021/10/31 13:43:44;;;;;;;11.35;9.45;;;;;;;;;;5073546;28;20466;-80
2021/10/31 13:46:10;;;;;;;13.68;10.43;;;;;;;;;;5073301;28;20123;-80
2021/10/31 13:48:40;;;;;;;11.57;10.43;;;;;;;;;;5073553;28;20025;-81
2021/10/31 13:51:07;;;;;;;15.07;10.25;;;;;;;;;;5073439;28;20048;-83
2021/10/31 13:53:34;;;;;;;13.18;8.95;;;;;;;;;;5055395;28;20031;-81
2021/10/31 13:56:00;;;;;;;10.90;9.80;;;;;;;;;;5073565;28;20032;-82
2021/10/31 13:58:27;;;;;;;12.13;8.48;;;;;;;;;;5073500;28;20566;-81
2021/10/31 14:00:53;;;;;;;13.73;9.35;;;;;;;;;;5073274;28;20028;-81
2021/10/31 14:03:39;;;;;;;10.07;9.07;;;;;;;;;;5055371;28;20357;-81
2021/10/31 14:12:30;;;;;;;15.40;10.20;;;;;;;;;;4900004;29;20103;-83
2021/10/31 14:15:15;;;;;;;18.38;10.88;;;;;;;;;;4884159;29;20037;-82
2021/10/31 14:18:01;;;;;;;12.40;9.57;;;;;;;;;;4952996;28;20030;-81
2021/10/31 14:20:31;;;;;;;13.25;10.18;;;;;;;;;;5007242;28;20032;-83
2021/10/31 14:22:58;;;;;;;14.98;12.48;;;;;;;;;;5077358;28;20020;-79
2021/10/31 14:25:26;;;;;;;15.65;10.07;;;;;;;;;;5077133;28;20020;-82
2021/10/31 14:28:05;;;;;;;18.10;10.48;;;;;;;;;;5077083;28;20020;-81
2021/10/31 14:30:35;;;;;;;12.00;9.25;;;;;;;;;;5077278;28;20488;-82
2021/10/31 14:33:21;;;;;;;11.35;8.40;;;;;;;;;;5076998;28;20103;-80
2021/10/31 14:35:48;;;;;;;12.48;10.18;;;;;;;;;;5076690;28;20033;-81
2021/10/31 14:38:21;;;;;;;14.05;10.00;;;;;;;;;;5076916;28;20485;-81
2021/10/31 14:40:47;;;;;;;12.10;10.20;;;;;;;;;;5076783;28;20025;-80
2021/10/31 14:43:22;;;;;;;10.23;9.13;;;;;;;;;;5076822;28;20021;-82
2021/10/31 14:45:58;;;;;;;15.98;11.73;;;;;;;;;;5058787;28;20105;-83
2021/10/31 14:48:32;;;;;;;15.52;11.85;;;;;;;;;;5076787;28;20052;-81
2021/10/31 14:51:14;;;;;;;22.45;17.70;;;;;;;;;;5058906;28;20476;-83
2021/10/31 14:53:47;;;;;;;16.90;14.73;;;;;;;;;;5076841;28;20348;-80
2021/10/31 14:56:14;;;;;;;21.58;18.70;;;;;;;;;;5076560;28;20071;-80
2021/10/31 14:58:42;;;;;;;59.28;35.30;;;;;;;;;;5076465;28;20016;-80
2021/10/31 15:01:18;;;;;;;80.22;43.33;;;;;;;;;;5076343;28;20023;-83
2021/10/31 15:03:44;;;;;;;69.32;44.25;;;;;;;;;;5076450;28;20013;-81
2021/10/31 15:06:10;;;;;;;53.70;33.20;;;;;;;;;;5076395;28;20020;-81
2021/10/31 15:08:39;;;;;;;45.25;28.52;;;;;;;;;;5076369;28;20051;-82
2021/10/31 15:11:05;;;;;;;26.08;19.20;;;;;;;;;;5076185;28;20012;-80